Iona Mcallister — WDD4840 — position and weather

sailwx.info

Track history (hours):
 
Tides and Currents Weather Stations Pressure Air Temp Water Temp Dewpoint Dewpoint Depression Visibility Wind Speed Wind Dir Waves Ship Positions

Iona Mcallister

Owner: McAllister Towing & Transportation Co. Inc., Staten Island, NY. More information available from US FCC via Universal Licensing System and Coast Guard Vessel Documentation Center.

Last reported at 2016-Apr-18 12:04 UTC. Time now 2016-May-03 14:29 UTC.
Position N 41°30' W 071°21'.
Warning: this ship's position is 15 days out of date.

Length 36 m; draft 3 m.

Type: Towing. MMSI: 367149890.

Date/timePositionNaut miles runAvg speedWind from/ knotsBaromVisibWave heightAir tempDewpointWater temp
2016-Apr-18 12:04N 41°30' W 071°21'5 9.5
2016-Apr-18 11:34N 41°35' W 071°22'2 1.7
2016-Apr-18 10:25N 41°36' W 071°24'0 0.0
2016-Apr-18 09:29N 41°36' W 071°24'6 6.7
2016-Apr-18 08:33N 41°42' W 071°20'7 7.4
2016-Apr-18 07:34N 41°49' W 071°24'0 0.0
2016-Apr-18 06:33N 41°49' W 071°24'0 0.0
2016-Apr-18 05:33N 41°49' W 071°24'0 0.0
2016-Apr-18 04:33N 41°49' W 071°24'0 0.0
2016-Apr-18 03:33N 41°49' W 071°24'0 0.0
2016-Apr-18 02:34N 41°49' W 071°24'0 0.0
2016-Apr-18 01:33N 41°49' W 071°24'0 0.0
2016-Apr-18 00:33N 41°49' W 071°24'2 1.8
2016-Apr-17 23:25N 41°47' W 071°23'7 8.2
2016-Apr-17 22:33N 41°40' W 071°22'4 0.3
2016-Apr-17 10:31N 41°37' W 071°24'1 0.8
2016-Apr-17 09:33N 41°36' W 071°24'8 7.7
2016-Apr-17 08:33N 41°44' W 071°22'5 5.5
2016-Apr-17 07:33N 41°49' W 071°24'0 0.0
2016-Apr-17 06:34N 41°49' W 071°24'0 0.0
2016-Apr-17 05:33N 41°49' W 071°24'0 0.0
2016-Apr-17 04:33N 41°49' W 071°24'0 0.0
2016-Apr-17 03:33N 41°49' W 071°24'0 0.0
2016-Apr-17 02:33N 41°49' W 071°24'0 0.0
2016-Apr-17 01:33N 41°49' W 071°24'0 0.0
2016-Apr-17 00:33N 41°49' W 071°24'0 0.0
2016-Apr-16 23:34N 41°49' W 071°24'0 0.0
2016-Apr-16 22:34N 41°49' W 071°24'0 0.0
2016-Apr-16 20:33N 41°49' W 071°24'0 0.0
2016-Apr-16 19:29N 41°49' W 071°24'0 0.0
2016-Apr-16 18:32N 41°49' W 071°24'0 0.0
2016-Apr-16 17:33N 41°49' W 071°24'0 0.0
2016-Apr-16 16:29N 41°49' W 071°24'0 0.0
2016-Apr-16 15:23N 41°49' W 071°24'0 0.0
2016-Apr-16 14:32N 41°49' W 071°24'0 0.0
2016-Apr-16 13:32N 41°49' W 071°24'0 0.0
2016-Apr-16 12:34N 41°49' W 071°24'0 0.0
2016-Apr-16 09:15N 41°49' W 071°24'0 0.0
2016-Apr-16 08:23N 41°49' W 071°24'0 0.0
2016-Apr-16 06:16N 41°49' W 071°24'0 0.0
2016-Apr-16 05:32N 41°49' W 071°24'0 0.0
2016-Apr-16 04:17N 41°49' W 071°24'1 1.0
2016-Apr-16 03:27N 41°48' W 071°24'1 0.9
2016-Apr-16 02:33N 41°49' W 071°24'0 0.0
2016-Apr-16 01:33N 41°49' W 071°24'0 0.0
2016-Apr-16 00:34N 41°49' W 071°24'0 0.0
2016-Apr-15 23:29N 41°49' W 071°24'0 0.0
2016-Apr-15 22:33N 41°49' W 071°24'0 0.0
2016-Apr-15 21:25N 41°49' W 071°24'2 2.1
2016-Apr-15 20:25N 41°47' W 071°23'0 0.2
2016-Apr-15 19:30N 41°47' W 071°22'1 1.4
2016-Apr-15 18:28N 41°48' W 071°24'1 0.6
2016-Apr-15 17:06N 41°49' W 071°24'0 0.0
2016-Apr-15 16:12N 41°49' W 071°24'0 0.0
2016-Apr-15 15:13N 41°49' W 071°24'0 0.0
2016-Apr-15 14:24N 41°49' W 071°24'0 0.0
2016-Apr-15 13:16N 41°49' W 071°24'0 0.0
2016-Apr-15 12:31N 41°49' W 071°24'2 0.3
2016-Apr-15 06:26N 41°47' W 071°23'7 8.3
2016-Apr-15 05:33N 41°40' W 071°22'6 5.5
2016-Apr-15 04:33N 41°35' W 071°25'1 1.1
2016-Apr-15 03:34N 41°36' W 071°24'1 0.2
2016-Apr-14 22:28N 41°37' W 071°24'0 0.0
2016-Apr-14 12:14N 41°37' W 071°24'0 0.2
2016-Apr-14 11:04N 41°37' W 071°24'1 2.2
2016-Apr-14 10:32N 41°37' W 071°23'8 8.2
2016-Apr-14 09:34N 41°45' W 071°22'4 3.9
2016-Apr-14 08:33N 41°49' W 071°24'0 0.0
2016-Apr-14 07:33N 41°49' W 071°24'0 0.0
2016-Apr-14 06:33N 41°49' W 071°24'0 0.0
2016-Apr-14 05:33N 41°49' W 071°24'0 0.0
2016-Apr-14 04:34N 41°49' W 071°24'0 0.0
2016-Apr-14 01:25N 41°49' W 071°24'0 0.0
2016-Apr-14 00:26N 41°49' W 071°24'0 0.0
2016-Apr-13 17:26N 41°49' W 071°24'0 0.0
2016-Apr-13 15:10N 41°49' W 071°24'0 0.0
2016-Apr-13 14:32N 41°49' W 071°24'0 0.0
2016-Apr-13 13:33N 41°49' W 071°24'0 0.0
2016-Apr-13 12:30N 41°49' W 071°24'0 0.0
2016-Apr-13 11:34N 41°49' W 071°24'0 0.0
2016-Apr-13 10:33N 41°49' W 071°24'0 0.0
2016-Apr-13 09:33N 41°49' W 071°24'0 0.0
2016-Apr-13 08:33N 41°49' W 071°24'0 0.0
2016-Apr-13 07:33N 41°49' W 071°24'0 0.0
2016-Apr-13 06:33N 41°49' W 071°24'0 0.0
2016-Apr-13 05:33N 41°49' W 071°24'0 0.0
2016-Apr-13 04:33N 41°49' W 071°24'0 0.0
2016-Apr-13 03:34N 41°49' W 071°24'0 0.0
2016-Apr-13 02:31N 41°49' W 071°24'1 0.8
2016-Apr-13 01:32N 41°48' W 071°24'1 0.8
2016-Apr-13 00:33N 41°49' W 071°24'0 0.0
2016-Apr-12 23:33N 41°49' W 071°24'1 0.7
2016-Apr-12 22:34N 41°48' W 071°24'8 7.5
2016-Apr-12 21:33N 41°41' W 071°21'5 4.0
2016-Apr-12 20:18N 41°37' W 071°24'0 0.0
2016-Apr-12 19:27N 41°37' W 071°24'0 0.0
2016-Apr-12 18:30N 41°37' W 071°24'0 0.0
2016-Apr-12 17:33N 41°37' W 071°24'0 0.0
2016-Apr-12 15:32N 41°37' W 071°24'0 0.0
2016-Apr-12 14:34N 41°37' W 071°24'0 0.0
2016-Apr-12 13:14N 41°37' W 071°24'0 0.0
2016-Apr-12 12:33N 41°37' W 071°24'0 0.0
2016-Apr-12 11:28N 41°37' W 071°24'0 0.1
2016-Apr-12 10:33N 41°37' W 071°24'1 0.9
2016-Apr-12 09:32N 41°36' W 071°24'1 0.9
2016-Apr-12 08:33N 41°37' W 071°24'0 0.0
2016-Apr-12 07:34N 41°37' W 071°24'0 0.0
2016-Apr-12 06:30N 41°37' W 071°24'0 0.0
2016-Apr-12 04:16N 41°37' W 071°24'0 0.0
2016-Apr-12 03:33N 41°37' W 071°24'0 0.0
2016-Apr-12 02:30N 41°37' W 071°24'0 0.0
2016-Apr-12 01:25N 41°37' W 071°24'0 0.0
2016-Apr-12 00:33N 41°37' W 071°24'0 0.0
2016-Apr-11 23:33N 41°37' W 071°24'0 0.0
2016-Apr-11 22:33N 41°37' W 071°24'0 0.0
2016-Apr-11 21:33N 41°37' W 071°24'0 0.0
2016-Apr-11 13:33N 41°37' W 071°24'0 0.0
2016-Apr-11 12:25N 41°37' W 071°24'0 0.0
2016-Apr-11 11:33N 41°37' W 071°24'0 0.1
2016-Apr-11 10:16N 41°37' W 071°24'2 2.2
2016-Apr-11 09:32N 41°35' W 071°24'0 0.0
2016-Apr-11 08:32N 41°35' W 071°24'0 0.0
2016-Apr-11 07:33N 41°35' W 071°24'0 0.0
2016-Apr-11 06:33N 41°35' W 071°24'0 0.0
2016-Apr-11 05:33N 41°35' W 071°24'0 0.0
2016-Apr-11 04:33N 41°35' W 071°24'0 0.0
2016-Apr-11 03:33N 41°35' W 071°24'0 0.0
2016-Apr-11 02:33N 41°35' W 071°24'1 1.2
2016-Apr-11 01:28N 41°36' W 071°24'7 7.6
2016-Apr-11 00:31N 41°43' W 071°21'6 1.0
2016-Apr-10 18:22N 41°49' W 071°24'0 0.0
2016-Apr-10 17:28N 41°49' W 071°24'1 0.9
2016-Apr-10 16:33N 41°48' W 071°24'1 0.6
2016-Apr-10 15:17N 41°49' W 071°24'0 0.0
2016-Apr-10 14:21N 41°49' W 071°24'0 0.0
2016-Apr-10 13:32N 41°49' W 071°24'0 0.0
2016-Apr-10 12:23N 41°49' W 071°24'0 0.0
2016-Apr-10 04:05N 41°49' W 071°24'2 4.3
2016-Apr-10 03:33N 41°47' W 071°22'2 2.3
2016-Apr-10 02:33N 41°49' W 071°24'0 0.0
2016-Apr-10 01:33N 41°49' W 071°24'0 0.0
2016-Apr-10 00:33N 41°49' W 071°24'0 0.0
2016-Apr-09 23:33N 41°49' W 071°24'0 0.0
2016-Apr-09 22:33N 41°49' W 071°24'0 0.0
2016-Apr-09 20:31N 41°49' W 071°24'0 0.0
2016-Apr-09 19:26N 41°49' W 071°24'0 0.0
2016-Apr-09 18:34N 41°49' W 071°24'0 0.0
2016-Apr-09 17:33N 41°49' W 071°24'0 0.0
2016-Apr-09 16:20N 41°49' W 071°24'0 0.0
2016-Apr-09 15:33N 41°49' W 071°24'0 0.0
2016-Apr-09 14:33N 41°49' W 071°24'0 0.0
2016-Apr-09 13:26N 41°49' W 071°24'2 2.5
2016-Apr-09 12:33N 41°47' W 071°22'0 0.0
2016-Apr-09 11:30N 41°47' W 071°22'2 2.4
2016-Apr-09 10:33N 41°49' W 071°24'0 0.0
2016-Apr-09 09:33N 41°49' W 071°24'0 0.0
2016-Apr-09 08:33N 41°49' W 071°24'0 0.0
2016-Apr-09 07:33N 41°49' W 071°24'0 0.0
2016-Apr-09 06:32N 41°49' W 071°24'0 0.0
2016-Apr-09 05:33N 41°49' W 071°24'0 0.0
2016-Apr-09 04:33N 41°49' W 071°24'0 0.0
2016-Apr-09 03:33N 41°49' W 071°24'0 0.0
2016-Apr-09 02:33N 41°49' W 071°24'0 0.0
2016-Apr-09 01:32N 41°49' W 071°24'0 0.0
2016-Apr-09 00:33N 41°49' W 071°24'0 0.0
2016-Apr-08 23:33N 41°49' W 071°24'0 0.0
2016-Apr-08 22:33N 41°49' W 071°24'0 0.0
2016-Apr-08 21:33N 41°49' W 071°24'0 0.0
2016-Apr-08 20:33N 41°49' W 071°24'1 0.7
2016-Apr-08 19:31N 41°48' W 071°24'1 0.6
2016-Apr-08 18:33N 41°49' W 071°24'0 0.1
2016-Apr-08 17:33N 41°49' W 071°24'0 0.0
2016-Apr-08 16:21N 41°49' W 071°24'0 0.0
2016-Apr-08 15:26N 41°49' W 071°24'0 0.0
2016-Apr-08 14:33N 41°49' W 071°24'1 0.9
2016-Apr-08 13:28N 41°48' W 071°23'1 1.1
2016-Apr-08 12:33N 41°49' W 071°24'  
Track history (hours):
 
Tides and Currents Weather Stations Pressure Air Temp Water Temp Dewpoint Dewpoint Depression Visibility Wind Speed Wind Dir Waves Ship Positions

Iona Mcallister

Owner: McAllister Towing & Transportation Co. Inc., Staten Island, NY. More information available from US FCC via Universal Licensing System and Coast Guard Vessel Documentation Center.

Last reported at 2016-Apr-18 12:04 UTC. Time now 2016-May-03 14:29 UTC.
Position N 41°30' W 071°21'.
Warning: this ship's position is 15 days out of date.

Length 36 m; draft 3 m.

Type: Towing. MMSI: 367149890.

Date/timePositionNaut miles runAvg speedWind from/ knotsBaromVisibWave heightAir tempDewpointWater temp
2016-Apr-18 12:04N 41°30' W 071°21'5 9.5
2016-Apr-18 11:34N 41°35' W 071°22'2 1.7
2016-Apr-18 10:25N 41°36' W 071°24'0 0.0
2016-Apr-18 09:29N 41°36' W 071°24'6 6.7
2016-Apr-18 08:33N 41°42' W 071°20'7 7.4
2016-Apr-18 07:34N 41°49' W 071°24'0 0.0
2016-Apr-18 06:33N 41°49' W 071°24'0 0.0
2016-Apr-18 05:33N 41°49' W 071°24'0 0.0
2016-Apr-18 04:33N 41°49' W 071°24'0 0.0
2016-Apr-18 03:33N 41°49' W 071°24'0 0.0
2016-Apr-18 02:34N 41°49' W 071°24'0 0.0
2016-Apr-18 01:33N 41°49' W 071°24'0 0.0
2016-Apr-18 00:33N 41°49' W 071°24'2 1.8
2016-Apr-17 23:25N 41°47' W 071°23'7 8.2
2016-Apr-17 22:33N 41°40' W 071°22'4 0.3
2016-Apr-17 10:31N 41°37' W 071°24'1 0.8
2016-Apr-17 09:33N 41°36' W 071°24'8 7.7
2016-Apr-17 08:33N 41°44' W 071°22'5 5.5
2016-Apr-17 07:33N 41°49' W 071°24'0 0.0
2016-Apr-17 06:34N 41°49' W 071°24'0 0.0
2016-Apr-17 05:33N 41°49' W 071°24'0 0.0
2016-Apr-17 04:33N 41°49' W 071°24'0 0.0
2016-Apr-17 03:33N 41°49' W 071°24'0 0.0
2016-Apr-17 02:33N 41°49' W 071°24'0 0.0
2016-Apr-17 01:33N 41°49' W 071°24'0 0.0
2016-Apr-17 00:33N 41°49' W 071°24'0 0.0
2016-Apr-16 23:34N 41°49' W 071°24'0 0.0
2016-Apr-16 22:34N 41°49' W 071°24'0 0.0
2016-Apr-16 20:33N 41°49' W 071°24'0 0.0
2016-Apr-16 19:29N 41°49' W 071°24'0 0.0
2016-Apr-16 18:32N 41°49' W 071°24'0 0.0
2016-Apr-16 17:33N 41°49' W 071°24'0 0.0
2016-Apr-16 16:29N 41°49' W 071°24'0 0.0
2016-Apr-16 15:23N 41°49' W 071°24'0 0.0
2016-Apr-16 14:32N 41°49' W 071°24'0 0.0
2016-Apr-16 13:32N 41°49' W 071°24'0 0.0
2016-Apr-16 12:34N 41°49' W 071°24'0 0.0
2016-Apr-16 09:15N 41°49' W 071°24'0 0.0
2016-Apr-16 08:23N 41°49' W 071°24'0 0.0
2016-Apr-16 06:16N 41°49' W 071°24'0 0.0
2016-Apr-16 05:32N 41°49' W 071°24'0 0.0
2016-Apr-16 04:17N 41°49' W 071°24'1 1.0
2016-Apr-16 03:27N 41°48' W 071°24'1 0.9
2016-Apr-16 02:33N 41°49' W 071°24'0 0.0
2016-Apr-16 01:33N 41°49' W 071°24'0 0.0
2016-Apr-16 00:34N 41°49' W 071°24'0 0.0
2016-Apr-15 23:29N 41°49' W 071°24'0 0.0
2016-Apr-15 22:33N 41°49' W 071°24'0 0.0
2016-Apr-15 21:25N 41°49' W 071°24'2 2.1
2016-Apr-15 20:25N 41°47' W 071°23'0 0.2
2016-Apr-15 19:30N 41°47' W 071°22'1 1.4
2016-Apr-15 18:28N 41°48' W 071°24'1 0.6
2016-Apr-15 17:06N 41°49' W 071°24'0 0.0
2016-Apr-15 16:12N 41°49' W 071°24'0 0.0
2016-Apr-15 15:13N 41°49' W 071°24'0 0.0
2016-Apr-15 14:24N 41°49' W 071°24'0 0.0
2016-Apr-15 13:16N 41°49' W 071°24'0 0.0
2016-Apr-15 12:31N 41°49' W 071°24'2 0.3
2016-Apr-15 06:26N 41°47' W 071°23'7 8.3
2016-Apr-15 05:33N 41°40' W 071°22'6 5.5
2016-Apr-15 04:33N 41°35' W 071°25'1 1.1
2016-Apr-15 03:34N 41°36' W 071°24'1 0.2
2016-Apr-14 22:28N 41°37' W 071°24'0 0.0
2016-Apr-14 12:14N 41°37' W 071°24'0 0.2
2016-Apr-14 11:04N 41°37' W 071°24'1 2.2
2016-Apr-14 10:32N 41°37' W 071°23'8 8.2
2016-Apr-14 09:34N 41°45' W 071°22'4 3.9
2016-Apr-14 08:33N 41°49' W 071°24'0 0.0
2016-Apr-14 07:33N 41°49' W 071°24'0 0.0
2016-Apr-14 06:33N 41°49' W 071°24'0 0.0
2016-Apr-14 05:33N 41°49' W 071°24'0 0.0
2016-Apr-14 04:34N 41°49' W 071°24'0 0.0
2016-Apr-14 01:25N 41°49' W 071°24'0 0.0
2016-Apr-14 00:26N 41°49' W 071°24'0 0.0
2016-Apr-13 17:26N 41°49' W 071°24'0 0.0
2016-Apr-13 15:10N 41°49' W 071°24'0 0.0
2016-Apr-13 14:32N 41°49' W 071°24'0 0.0
2016-Apr-13 13:33N 41°49' W 071°24'0 0.0
2016-Apr-13 12:30N 41°49' W 071°24'0 0.0
2016-Apr-13 11:34N 41°49' W 071°24'0 0.0
2016-Apr-13 10:33N 41°49' W 071°24'0 0.0
2016-Apr-13 09:33N 41°49' W 071°24'0 0.0
2016-Apr-13 08:33N 41°49' W 071°24'0 0.0
2016-Apr-13 07:33N 41°49' W 071°24'0 0.0
2016-Apr-13 06:33N 41°49' W 071°24'0 0.0
2016-Apr-13 05:33N 41°49' W 071°24'0 0.0
2016-Apr-13 04:33N 41°49' W 071°24'0 0.0
2016-Apr-13 03:34N 41°49' W 071°24'0 0.0
2016-Apr-13 02:31N 41°49' W 071°24'1 0.8
2016-Apr-13 01:32N 41°48' W 071°24'1 0.8
2016-Apr-13 00:33N 41°49' W 071°24'0 0.0
2016-Apr-12 23:33N 41°49' W 071°24'1 0.7
2016-Apr-12 22:34N 41°48' W 071°24'8 7.5
2016-Apr-12 21:33N 41°41' W 071°21'5 4.0
2016-Apr-12 20:18N 41°37' W 071°24'0 0.0
2016-Apr-12 19:27N 41°37' W 071°24'0 0.0
2016-Apr-12 18:30N 41°37' W 071°24'0 0.0
2016-Apr-12 17:33N 41°37' W 071°24'0 0.0
2016-Apr-12 15:32N 41°37' W 071°24'0 0.0
2016-Apr-12 14:34N 41°37' W 071°24'0 0.0
2016-Apr-12 13:14N 41°37' W 071°24'0 0.0
2016-Apr-12 12:33N 41°37' W 071°24'0 0.0
2016-Apr-12 11:28N 41°37' W 071°24'0 0.1
2016-Apr-12 10:33N 41°37' W 071°24'1 0.9
2016-Apr-12 09:32N 41°36' W 071°24'1 0.9
2016-Apr-12 08:33N 41°37' W 071°24'0 0.0
2016-Apr-12 07:34N 41°37' W 071°24'0 0.0
2016-Apr-12 06:30N 41°37' W 071°24'0 0.0
2016-Apr-12 04:16N 41°37' W 071°24'0 0.0
2016-Apr-12 03:33N 41°37' W 071°24'0 0.0
2016-Apr-12 02:30N 41°37' W 071°24'0 0.0
2016-Apr-12 01:25N 41°37' W 071°24'0 0.0
2016-Apr-12 00:33N 41°37' W 071°24'0 0.0
2016-Apr-11 23:33N 41°37' W 071°24'0 0.0
2016-Apr-11 22:33N 41°37' W 071°24'0 0.0
2016-Apr-11 21:33N 41°37' W 071°24'0 0.0
2016-Apr-11 13:33N 41°37' W 071°24'0 0.0
2016-Apr-11 12:25N 41°37' W 071°24'0 0.0
2016-Apr-11 11:33N 41°37' W 071°24'0 0.1
2016-Apr-11 10:16N 41°37' W 071°24'2 2.2
2016-Apr-11 09:32N 41°35' W 071°24'0 0.0
2016-Apr-11 08:32N 41°35' W 071°24'0 0.0
2016-Apr-11 07:33N 41°35' W 071°24'0 0.0
2016-Apr-11 06:33N 41°35' W 071°24'0 0.0
2016-Apr-11 05:33N 41°35' W 071°24'0 0.0
2016-Apr-11 04:33N 41°35' W 071°24'0 0.0
2016-Apr-11 03:33N 41°35' W 071°24'0 0.0
2016-Apr-11 02:33N 41°35' W 071°24'1 1.2
2016-Apr-11 01:28N 41°36' W 071°24'7 7.6
2016-Apr-11 00:31N 41°43' W 071°21'6 1.0
2016-Apr-10 18:22N 41°49' W 071°24'0 0.0
2016-Apr-10 17:28N 41°49' W 071°24'1 0.9
2016-Apr-10 16:33N 41°48' W 071°24'1 0.6
2016-Apr-10 15:17N 41°49' W 071°24'0 0.0
2016-Apr-10 14:21N 41°49' W 071°24'0 0.0
2016-Apr-10 13:32N 41°49' W 071°24'0 0.0
2016-Apr-10 12:23N 41°49' W 071°24'0 0.0
2016-Apr-10 04:05N 41°49' W 071°24'2 4.3
2016-Apr-10 03:33N 41°47' W 071°22'2 2.3
2016-Apr-10 02:33N 41°49' W 071°24'0 0.0
2016-Apr-10 01:33N 41°49' W 071°24'0 0.0
2016-Apr-10 00:33N 41°49' W 071°24'0 0.0
2016-Apr-09 23:33N 41°49' W 071°24'0 0.0
2016-Apr-09 22:33N 41°49' W 071°24'0 0.0
2016-Apr-09 20:31N 41°49' W 071°24'0 0.0
2016-Apr-09 19:26N 41°49' W 071°24'0 0.0
2016-Apr-09 18:34N 41°49' W 071°24'0 0.0
2016-Apr-09 17:33N 41°49' W 071°24'0 0.0
2016-Apr-09 16:20N 41°49' W 071°24'0 0.0
2016-Apr-09 15:33N 41°49' W 071°24'0 0.0
2016-Apr-09 14:33N 41°49' W 071°24'0 0.0
2016-Apr-09 13:26N 41°49' W 071°24'2 2.5
2016-Apr-09 12:33N 41°47' W 071°22'0 0.0
2016-Apr-09 11:30N 41°47' W 071°22'2 2.4
2016-Apr-09 10:33N 41°49' W 071°24'0 0.0
2016-Apr-09 09:33N 41°49' W 071°24'0 0.0
2016-Apr-09 08:33N 41°49' W 071°24'0 0.0
2016-Apr-09 07:33N 41°49' W 071°24'0 0.0
2016-Apr-09 06:32N 41°49' W 071°24'0 0.0
2016-Apr-09 05:33N 41°49' W 071°24'0 0.0
2016-Apr-09 04:33N 41°49' W 071°24'0 0.0
2016-Apr-09 03:33N 41°49' W 071°24'0 0.0
2016-Apr-09 02:33N 41°49' W 071°24'0 0.0
2016-Apr-09 01:32N 41°49' W 071°24'0 0.0
2016-Apr-09 00:33N 41°49' W 071°24'0 0.0
2016-Apr-08 23:33N 41°49' W 071°24'0 0.0
2016-Apr-08 22:33N 41°49' W 071°24'0 0.0
2016-Apr-08 21:33N 41°49' W 071°24'0 0.0
2016-Apr-08 20:33N 41°49' W 071°24'1 0.7
2016-Apr-08 19:31N 41°48' W 071°24'1 0.6
2016-Apr-08 18:33N 41°49' W 071°24'0 0.1
2016-Apr-08 17:33N 41°49' W 071°24'0 0.0
2016-Apr-08 16:21N 41°49' W 071°24'0 0.0
2016-Apr-08 15:26N 41°49' W 071°24'0 0.0
2016-Apr-08 14:33N 41°49' W 071°24'1 0.9
2016-Apr-08 13:28N 41°48' W 071°23'1 1.1
2016-Apr-08 12:33N 41°49' W 071°24'  

Dump ship's entire track history